Time;durP1;ratioP1;P1;durP2;ratioP2;P2;SDS_P1;SDS_P2;PMS_P1;PMS_P2;Temp;Humidity;BMP_temperature;BMP_pressure;BME280_temperature;BME280_humidity;BME280_pressure;Samples;Min_cycle;Max_cycle;Signal;HPM_P1;HPM_P2
2023/04/17 00:02:02;;;;;;;37.30;19.20;;;8.20;99.90;;;;;;4976910;28;20405;-62
2023/04/17 00:04:29;;;;;;;33.00;18.63;;;8.20;99.90;;;;;;4993903;28;20048;-61
2023/04/17 00:06:55;;;;;;;36.92;18.50;;;8.30;99.90;;;;;;5011776;28;20762;-61
2023/04/17 00:09:21;;;;;;;35.33;19.73;;;8.20;99.90;;;;;;5009905;28;20135;-62
2023/04/17 00:11:47;;;;;;;38.08;19.40;;;8.20;99.90;;;;;;5009867;28;20101;-59
2023/04/17 00:14:15;;;;;;;41.45;19.85;;;8.20;99.90;;;;;;5011599;28;20068;-61
2023/04/17 00:16:41;;;;;;;48.47;22.10;;;8.20;99.90;;;;;;5011385;28;20449;-60
2023/04/17 00:19:07;;;;;;;39.50;19.73;;;8.20;99.90;;;;;;5011555;28;20222;-62
2023/04/17 00:21:35;;;;;;;47.03;20.10;;;8.20;99.90;;;;;;5009980;28;20068;-61
2023/04/17 00:24:01;;;;;;;54.17;23.00;;;8.20;99.90;;;;;;5011037;28;20056;-61
2023/04/17 00:26:27;;;;;;;42.28;21.70;;;8.20;99.90;;;;;;5011188;28;20509;-61
2023/04/17 00:28:53;;;;;;;47.05;23.63;;;8.20;99.90;;;;;;5009861;28;20049;-60
2023/04/17 00:31:18;;;;;;;38.00;21.50;;;8.20;99.90;;;;;;5009554;28;20160;-61
2023/04/17 00:33:46;;;;;;;41.90;22.23;;;8.20;99.90;;;;;;5010965;28;20132;-62
2023/04/17 00:36:14;;;;;;;50.08;24.13;;;8.20;99.90;;;;;;5010987;28;20660;-59
2023/04/17 00:38:40;;;;;;;45.45;23.65;;;8.20;99.90;;;;;;4993950;28;20038;-61
2023/04/17 00:41:06;;;;;;;43.85;22.55;;;8.20;99.90;;;;;;5009249;28;20054;-61
2023/04/17 00:43:35;;;;;;;44.17;21.70;;;8.10;99.90;;;;;;5010699;28;20054;-61
2023/04/17 00:46:01;;;;;;;44.45;23.85;;;8.10;99.90;;;;;;5011085;28;20104;-61
2023/04/17 00:48:27;;;;;;;46.28;22.55;;;8.10;99.90;;;;;;5010536;28;20041;-60
2023/04/17 00:50:54;;;;;;;42.72;20.88;;;8.10;99.90;;;;;;5009311;28;20042;-60
2023/04/17 00:53:19;;;;;;;48.53;23.35;;;8.00;99.90;;;;;;5009426;28;20064;-61
2023/04/17 00:55:49;;;;;;;47.40;23.67;;;8.00;99.90;;;;;;5010457;28;20033;-61
2023/04/17 00:58:15;;;;;;;55.72;25.23;;;8.00;99.90;;;;;;4990759;28;20116;-60
2023/04/17 01:00:40;;;;;;;41.42;22.90;;;8.10;99.90;;;;;;4990900;28;20042;-60
2023/04/17 01:03:07;;;;;;;40.38;23.35;;;8.10;99.90;;;;;;5010081;28;20048;-62
2023/04/17 01:05:34;;;;;;;35.45;21.05;;;8.10;99.90;;;;;;5008210;28;20104;-60
2023/04/17 01:08:00;;;;;;;38.97;21.77;;;8.10;99.90;;;;;;5011000;28;20041;-60
2023/04/17 01:10:25;;;;;;;40.45;21.52;;;8.00;99.90;;;;;;5008794;28;20107;-61
2023/04/17 01:13:05;;;;;;;53.42;24.13;;;8.00;99.90;;;;;;5010471;28;20038;-61
2023/04/17 01:15:35;;;;;;;46.88;22.05;;;8.00;99.90;;;;;;5008007;28;20050;-61
2023/04/17 01:18:01;;;;;;;43.38;22.90;;;8.00;99.90;;;;;;5010269;28;20516;-60
2023/04/17 01:20:29;;;;;;;38.45;20.80;;;8.00;99.90;;;;;;5008915;28;20050;-62
2023/04/17 01:22:57;;;;;;;50.40;25.13;;;8.10;99.90;;;;;;5010351;28;20053;-62
2023/04/17 01:25:23;;;;;;;37.65;20.88;;;8.10;99.90;;;;;;5008820;28;20058;-61
2023/04/17 01:27:49;;;;;;;38.33;21.58;;;8.10;99.90;;;;;;5009789;28;20610;-59
2023/04/17 01:30:15;;;;;;;40.47;22.30;;;8.10;99.90;;;;;;5015445;28;20061;-60
2023/04/17 01:32:41;;;;;;;38.55;21.05;;;8.10;99.90;;;;;;5006129;28;20184;-60
2023/04/17 01:35:07;;;;;;;40.33;22.95;;;8.10;99.90;;;;;;5004860;28;20056;-60
2023/04/17 01:37:33;;;;;;;41.00;21.05;;;8.10;99.90;;;;;;4994598;28;20049;-61
2023/04/17 01:39:59;;;;;;;39.97;22.08;;;8.00;99.90;;;;;;5009108;28;20046;-61
2023/04/17 01:42:25;;;;;;;41.00;21.92;;;8.00;99.90;;;;;;5005847;28;20077;-59
2023/04/17 01:44:51;;;;;;;43.22;22.90;;;8.00;99.90;;;;;;5008447;28;20049;-62
2023/04/17 01:47:16;;;;;;;48.90;23.55;;;8.00;99.90;;;;;;5007136;28;20037;-60
2023/04/17 01:49:45;;;;;;;48.70;23.40;;;8.00;99.90;;;;;;5007274;28;20049;-61
2023/04/17 01:52:11;;;;;;;46.88;23.73;;;8.00;99.90;;;;;;5004154;28;20037;-59
2023/04/17 01:54:36;;;;;;;55.03;25.30;;;8.00;99.90;;;;;;5007304;28;20669;-59
2023/04/17 01:57:02;;;;;;;53.80;24.55;;;8.00;99.90;;;;;;5006831;28;20386;-59
2023/04/17 01:59:28;;;;;;;39.10;20.63;;;8.00;99.90;;;;;;5009166;28;20037;-60
2023/04/17 02:01:55;;;;;;;46.85;22.90;;;7.90;99.90;;;;;;5005678;28;20131;-61
2023/04/17 02:04:20;;;;;;;39.70;21.60;;;7.90;99.90;;;;;;5007887;28;20102;-60
2023/04/17 02:06:49;;;;;;;48.95;25.23;;;7.90;99.90;;;;;;5006408;28;20083;-60
2023/04/17 02:09:15;;;;;;;53.45;26.17;;;8.00;99.90;;;;;;5022964;28;20485;-60
2023/04/17 02:11:43;;;;;;;50.88;24.25;;;8.00;99.90;;;;;;5003883;28;20037;-60
2023/04/17 02:14:09;;;;;;;48.78;24.67;;;8.00;99.90;;;;;;5007297;28;20430;-60
2023/04/17 02:16:36;;;;;;;51.28;25.55;;;8.00;99.90;;;;;;5009170;28;20096;-59
2023/04/17 02:19:02;;;;;;;46.78;24.35;;;7.90;99.90;;;;;;5007326;28;20631;-60
2023/04/17 02:21:28;;;;;;;44.97;23.60;;;7.90;99.90;;;;;;5011116;28;20042;-61
2023/04/17 02:23:53;;;;;;;39.42;21.90;;;7.90;99.90;;;;;;5009521;28;20049;-61
2023/04/17 02:26:19;;;;;;;42.42;24.48;;;8.00;99.90;;;;;;4997983;28;20104;-61
2023/04/17 02:28:45;;;;;;;49.20;23.70;;;8.00;99.90;;;;;;5010171;28;20116;-61
2023/04/17 02:31:12;;;;;;;49.13;24.25;;;8.00;99.90;;;;;;5011188;28;20116;-60
2023/04/17 02:33:37;;;;;;;43.25;22.67;;;8.00;99.90;;;;;;4990109;28;20042;-61
2023/04/17 02:36:05;;;;;;;34.25;20.77;;;8.00;99.90;;;;;;5001802;28;20418;-61
2023/04/17 02:38:31;;;;;;;42.47;22.42;;;8.00;99.90;;;;;;5010317;28;20048;-61
2023/04/17 02:41:03;;;;;;;41.05;22.63;;;7.90;99.90;;;;;;5007722;28;20381;-61
2023/04/17 02:43:29;;;;;;;38.00;20.65;;;8.00;99.90;;;;;;5004229;28;20034;-61
2023/04/17 02:45:55;;;;;;;38.55;21.90;;;8.00;99.90;;;;;;5006213;28;20093;-61
2023/04/17 02:48:20;;;;;;;39.63;21.33;;;8.00;99.90;;;;;;5009958;28;20061;-61
2023/04/17 02:50:46;;;;;;;49.72;24.42;;;8.00;99.90;;;;;;5006288;28;20042;-61
2023/04/17 02:53:12;;;;;;;55.67;26.02;;;8.00;99.90;;;;;;5006807;28;20041;-61
2023/04/17 02:55:37;;;;;;;48.03;23.70;;;8.00;99.90;;;;;;5010028;28;20148;-61
2023/04/17 02:58:06;;;;;;;51.92;24.58;;;7.90;99.90;;;;;;5017305;28;20053;-61
2023/04/17 03:00:31;;;;;;;49.17;25.27;;;7.90;99.90;;;;;;4989407;28;20651;-61
2023/04/17 03:02:57;;;;;;;65.63;27.77;;;7.90;99.90;;;;;;5013348;28;20102;-60
2023/04/17 03:05:23;;;;;;;47.85;24.02;;;7.90;99.90;;;;;;5011911;28;20405;-60
2023/04/17 03:07:50;;;;;;;51.75;25.30;;;7.90;99.90;;;;;;5014051;28;20068;-60
2023/04/17 03:10:15;;;;;;;70.47;26.55;;;7.90;99.90;;;;;;5018308;28;20084;-60
2023/04/17 03:12:41;;;;;;;43.92;23.52;;;7.90;99.90;;;;;;5013567;28;20041;-60
2023/04/17 03:15:07;;;;;;;42.88;22.77;;;7.80;99.90;;;;;;5010491;28;20041;-59
2023/04/17 03:17:33;;;;;;;52.90;24.17;;;7.80;99.90;;;;;;5008964;28;20057;-61
2023/04/17 03:19:59;;;;;;;43.75;23.88;;;7.80;99.90;;;;;;5008941;28;20052;-61
2023/04/17 03:22:24;;;;;;;74.03;28.48;;;7.80;99.90;;;;;;5009514;28;20475;-60
2023/04/17 03:24:50;;;;;;;57.40;27.05;;;7.80;99.90;;;;;;5013218;28;20156;-60
2023/04/17 03:27:16;;;;;;;52.33;25.33;;;7.80;99.90;;;;;;5005687;28;20169;-60
2023/04/17 03:29:41;;;;;;;42.95;21.58;;;7.80;99.90;;;;;;5010489;28;20072;-60
2023/04/17 03:32:07;;;;;;;65.43;27.70;;;7.90;99.90;;;;;;5007306;28;20137;-61
2023/04/17 03:34:37;;;;;;;113.32;32.78;;;7.80;99.90;;;;;;5004864;28;20045;-60
2023/04/17 03:37:02;;;;;;;68.65;27.25;;;7.80;99.90;;;;;;4999866;28;20037;-58
2023/04/17 03:39:28;;;;;;;52.83;24.98;;;7.80;99.90;;;;;;5005010;28;20049;-60
2023/04/17 03:41:54;;;;;;;109.80;29.42;;;7.80;99.90;;;;;;4999816;28;20046;-60
2023/04/17 03:44:20;;;;;;;115.20;29.33;;;7.80;99.90;;;;;;5003656;28;20073;-60
2023/04/17 03:46:46;;;;;;;282.02;35.58;;;7.70;99.90;;;;;;5009471;28;20057;-60
2023/04/17 03:49:11;;;;;;;62.40;23.80;;;7.70;99.90;;;;;;5008627;28;20034;-60
2023/04/17 03:51:37;;;;;;;41.10;21.23;;;7.70;99.90;;;;;;5005393;28;20037;-61
2023/04/17 03:54:03;;;;;;;80.68;26.63;;;7.70;99.90;;;;;;5007893;28;20034;-59
2023/04/17 03:56:29;;;;;;;73.40;23.15;;;7.70;99.90;;;;;;5004797;28;20067;-59
2023/04/17 03:58:55;;;;;;;100.30;26.45;;;7.80;99.90;;;;;;5000327;28;20045;-61
2023/04/17 04:01:27;;;;;;;42.28;23.25;;;7.70;99.90;;;;;;5001992;28;20045;-60
2023/04/17 04:03:53;;;;;;;59.70;24.20;;;7.70;99.90;;;;;;5011299;28;20109;-61
2023/04/17 04:06:21;;;;;;;48.35;20.92;;;7.70;99.90;;;;;;5007317;28;20509;-61
2023/04/17 04:08:48;;;;;;;51.10;22.67;;;7.80;99.90;;;;;;5008736;28;20068;-61
2023/04/17 04:11:14;;;;;;;61.55;22.77;;;7.70;99.90;;;;;;5010612;28;20117;-61
2023/04/17 04:13:40;;;;;;;61.38;22.17;;;7.70;99.90;;;;;;5011646;28;20120;-61
2023/04/17 04:16:06;;;;;;;170.15;28.58;;;7.70;99.90;;;;;;5008127;28;20477;-61
2023/04/17 04:18:32;;;;;;;49.20;20.88;;;7.60;99.90;;;;;;5013036;28;20095;-61
2023/04/17 04:20:58;;;;;;;60.03;20.45;;;7.60;99.90;;;;;;5008233;28;20041;-61
2023/04/17 04:23:23;;;;;;;94.65;24.35;;;7.60;99.90;;;;;;5003396;28;20042;-61
2023/04/17 04:25:50;;;;;;;120.97;24.92;;;7.60;99.90;;;;;;5010926;28;20045;-61
2023/04/17 04:28:16;;;;;;;105.50;25.88;;;7.60;99.90;;;;;;5010073;28;20049;-61
2023/04/17 04:30:49;;;;;;;121.57;26.25;;;7.60;99.90;;;;;;5009698;28;20052;-61
2023/04/17 04:33:19;;;;;;;57.38;20.67;;;7.60;99.90;;;;;;5006047;28;20107;-61
2023/04/17 04:35:48;;;;;;;105.03;24.55;;;7.50;99.90;;;;;;5009420;28;20089;-60
2023/04/17 04:38:15;;;;;;;43.88;19.70;;;7.50;99.90;;;;;;5005681;28;20046;-61
2023/04/17 04:40:51;;;;;;;51.72;22.95;;;7.50;99.90;;;;;;5010277;28;20094;-61
2023/04/17 04:43:17;;;;;;;64.13;22.30;;;7.50;99.90;;;;;;5002917;28;20451;-61
2023/04/17 04:45:42;;;;;;;234.80;33.30;;;7.50;99.90;;;;;;5014577;28;20040;-61
2023/04/17 04:48:08;;;;;;;147.23;28.45;;;7.50;99.90;;;;;;5011382;28;20044;-61
2023/04/17 04:50:34;;;;;;;49.50;21.95;;;7.50;99.90;;;;;;5009800;28;20049;-60
2023/04/17 04:53:00;;;;;;;53.40;21.98;;;7.50;99.90;;;;;;5003903;28;20068;-59
2023/04/17 04:55:25;;;;;;;100.05;25.10;;;7.50;99.90;;;;;;5007136;28;20636;-61
2023/04/17 04:57:53;;;;;;;174.85;28.15;;;7.50;99.90;;;;;;5006650;28;20042;-61
2023/04/17 05:00:19;;;;;;;86.30;26.35;;;7.50;99.90;;;;;;5008312;28;20038;-61
2023/04/17 05:02:48;;;;;;;79.57;24.45;;;7.50;99.90;;;;;;5011097;28;20078;-59
2023/04/17 05:05:13;;;;;;;164.20;30.48;;;7.50;99.90;;;;;;5014413;28;20046;-60
2023/04/17 05:07:39;;;;;;;73.47;24.90;;;7.50;99.90;;;;;;5005193;28;20038;-59
2023/04/17 05:10:05;;;;;;;91.13;23.88;;;7.60;99.90;;;;;;5008394;28;20049;-60
2023/04/17 05:12:31;;;;;;;237.38;33.85;;;7.50;99.90;;;;;;5007282;28;20045;-60
2023/04/17 05:14:57;;;;;;;189.85;29.25;;;7.50;99.90;;;;;;5002522;28;20162;-61
2023/04/17 05:17:23;;;;;;;166.57;29.98;;;7.50;99.90;;;;;;5009842;28;20073;-59
2023/04/17 05:19:52;;;;;;;44.38;21.40;;;7.50;99.90;;;;;;5010271;28;20057;-59
2023/04/17 05:22:17;;;;;;;67.57;24.73;;;7.50;99.90;;;;;;5013425;28;20481;-60
2023/04/17 05:24:49;;;;;;;82.20;24.83;;;7.50;99.90;;;;;;5008031;28;20116;-59
2023/04/17 05:27:17;;;;;;;155.02;27.15;;;7.60;99.90;;;;;;5017537;28;20034;-61
2023/04/17 05:29:43;;;;;;;110.50;23.45;;;7.50;99.90;;;;;;5013518;28;20088;-61
2023/04/17 05:32:09;;;;;;;55.30;21.48;;;7.50;99.90;;;;;;5003774;28;21049;-58
2023/04/17 05:34:34;;;;;;;94.25;24.95;;;7.50;99.90;;;;;;5006297;28;20037;-61
2023/04/17 05:37:01;;;;;;;81.47;27.27;;;7.50;99.90;;;;;;4989851;28;20037;-58
2023/04/17 05:39:27;;;;;;;104.05;25.42;;;7.50;99.90;;;;;;5008092;28;20053;-60
2023/04/17 05:41:52;;;;;;;95.15;26.85;;;7.50;99.90;;;;;;5007655;28;20452;-60
2023/04/17 05:44:18;;;;;;;129.60;30.42;;;7.50;99.90;;;;;;5005213;28;20041;-61
2023/04/17 05:46:44;;;;;;;56.33;25.52;;;7.50;99.90;;;;;;5011812;28;20069;-62
2023/04/17 05:49:10;;;;;;;88.95;27.48;;;7.60;99.90;;;;;;5004780;28;20091;-61
2023/04/17 05:51:35;;;;;;;170.13;33.53;;;7.60;99.90;;;;;;5007968;28;20033;-62
2023/04/17 05:54:02;;;;;;;56.92;25.80;;;7.70;99.90;;;;;;5011328;28;20073;-61
2023/04/17 05:56:27;;;;;;;54.97;24.45;;;7.70;99.90;;;;;;5006283;28;20045;-61
2023/04/17 05:58:53;;;;;;;54.33;23.15;;;7.70;99.90;;;;;;5003610;28;20048;-61
2023/04/17 06:01:21;;;;;;;130.35;27.80;;;7.70;99.90;;;;;;4985456;28;20107;-61
2023/04/17 06:03:47;;;;;;;69.78;25.92;;;7.70;99.90;;;;;;5012870;28;20046;-63
2023/04/17 06:06:13;;;;;;;93.28;27.63;;;7.70;99.90;;;;;;5004833;28;20129;-62
2023/04/17 06:08:39;;;;;;;81.75;25.42;;;7.70;99.90;;;;;;5006244;28;20109;-61
2023/04/17 06:11:05;;;;;;;108.05;26.80;;;7.70;99.90;;;;;;5003825;28;20034;-63
2023/04/17 06:13:31;;;;;;;55.97;25.25;;;7.70;99.90;;;;;;5001467;28;20041;-61
2023/04/17 06:15:57;;;;;;;47.58;23.63;;;7.70;99.90;;;;;;5002037;28;20066;-61
2023/04/17 06:18:23;;;;;;;74.00;26.27;;;7.80;99.90;;;;;;5001697;28;20448;-62
2023/04/17 06:20:49;;;;;;;59.65;23.98;;;7.80;99.90;;;;;;4983839;28;20038;-61
2023/04/17 06:23:15;;;;;;;46.75;21.15;;;7.90;99.90;;;;;;5001579;28;20525;-60
2023/04/17 06:25:41;;;;;;;68.60;23.67;;;7.90;99.90;;;;;;5005479;28;20069;-62
2023/04/17 06:28:07;;;;;;;65.70;24.08;;;7.90;99.90;;;;;;5018077;28;20588;-60
2023/04/17 06:30:36;;;;;;;37.33;18.75;;;7.90;99.90;;;;;;5004202;28;20043;-60
2023/04/17 06:33:02;;;;;;;50.40;22.13;;;7.90;99.90;;;;;;5009799;28;20046;-61
2023/04/17 06:35:27;;;;;;;47.25;20.08;;;8.00;99.90;;;;;;5007376;28;20033;-60
2023/04/17 06:37:53;;;;;;;38.03;19.85;;;8.00;99.90;;;;;;5003650;28;20030;-61
2023/04/17 06:40:19;;;;;;;42.83;21.00;;;8.00;99.90;;;;;;4999819;28;20065;-62
2023/04/17 06:42:45;;;;;;;34.33;18.88;;;7.90;99.90;;;;;;5000598;28;21126;-61
2023/04/17 06:45:11;;;;;;;35.53;19.10;;;7.90;99.90;;;;;;5004494;28;20107;-61
2023/04/17 06:47:37;;;;;;;38.90;21.52;;;7.80;99.90;;;;;;5002061;28;20798;-61
2023/04/17 06:50:03;;;;;;;33.63;19.30;;;7.90;99.90;;;;;;5001051;28;20038;-60
2023/04/17 06:52:28;;;;;;;35.88;19.42;;;7.90;99.90;;;;;;5001351;28;20070;-60
2023/04/17 06:54:55;;;;;;;36.00;19.55;;;8.00;99.90;;;;;;5002811;28;20088;-61
2023/04/17 06:57:21;;;;;;;43.80;20.35;;;8.00;99.90;;;;;;4999542;28;20436;-60
2023/04/17 06:59:47;;;;;;;39.42;19.73;;;8.00;99.90;;;;;;5006585;28;20042;-60
2023/04/17 07:02:13;;;;;;;47.08;22.52;;;8.10;99.90;;;;;;5002173;28;20057;-61
2023/04/17 07:04:38;;;;;;;45.63;20.40;;;8.10;99.90;;;;;;5003728;28;20038;-61
2023/04/17 07:07:07;;;;;;;38.92;19.67;;;8.10;99.90;;;;;;4997405;28;20039;-60
2023/04/17 07:09:32;;;;;;;49.90;21.42;;;8.10;99.90;;;;;;5002322;28;20044;-61
2023/04/17 07:11:58;;;;;;;44.70;21.35;;;8.20;99.90;;;;;;5004817;28;20684;-61
2023/04/17 07:14:24;;;;;;;42.88;21.98;;;8.20;99.90;;;;;;5008227;28;20109;-61
2023/04/17 07:16:49;;;;;;;37.63;21.05;;;8.20;99.90;;;;;;5000974;28;20049;-61
2023/04/17 07:19:15;;;;;;;37.03;20.52;;;8.20;99.90;;;;;;5003265;28;20041;-62
2023/04/17 07:21:41;;;;;;;41.42;20.58;;;8.30;99.90;;;;;;5001995;28;20735;-62
2023/04/17 07:24:07;;;;;;;38.92;21.00;;;8.30;99.90;;;;;;5007254;28;20041;-62
2023/04/17 07:26:33;;;;;;;50.45;23.80;;;8.30;99.90;;;;;;5005202;28;20480;-61
2023/04/17 07:28:59;;;;;;;40.60;21.25;;;8.40;99.90;;;;;;5004030;28;20094;-61
2023/04/17 07:31:27;;;;;;;33.03;19.10;;;8.40;99.90;;;;;;5008113;28;20042;-61
2023/04/17 07:33:53;;;;;;;35.90;19.77;;;8.40;99.90;;;;;;5008969;28;20042;-60
2023/04/17 07:36:18;;;;;;;36.88;20.88;;;8.40;99.90;;;;;;5010136;28;20069;-61
2023/04/17 07:38:44;;;;;;;43.60;20.90;;;8.50;99.90;;;;;;5004930;28;20120;-58
2023/04/17 07:41:13;;;;;;;34.83;20.23;;;8.50;99.90;;;;;;5010790;28;20484;-61
2023/04/17 07:43:39;;;;;;;34.67;20.63;;;8.50;99.90;;;;;;5005622;28;20088;-59
2023/04/17 07:46:05;;;;;;;36.20;22.10;;;8.60;99.90;;;;;;5004942;28;20057;-60
2023/04/17 07:48:34;;;;;;;35.58;20.55;;;8.70;99.90;;;;;;5004833;28;20065;-58
2023/04/17 07:51:00;;;;;;;32.97;19.48;;;8.80;99.90;;;;;;5009911;28;20038;-61
2023/04/17 07:53:27;;;;;;;33.85;21.00;;;8.90;99.90;;;;;;5004250;28;20117;-61
2023/04/17 07:55:54;;;;;;;31.17;19.50;;;8.90;99.90;;;;;;4999655;28;20120;-61
2023/04/17 07:58:21;;;;;;;29.33;19.35;;;9.00;99.90;;;;;;5002716;28;20140;-60
2023/04/17 08:00:49;;;;;;;27.77;17.30;;;9.20;99.90;;;;;;5007444;28;20034;-61
2023/04/17 08:03:14;;;;;;;29.42;18.67;;;9.20;99.90;;;;;;5001686;28;20088;-60
2023/04/17 08:05:41;;;;;;;25.15;16.98;;;9.30;99.90;;;;;;5003381;28;20050;-61
2023/04/17 08:08:06;;;;;;;31.88;19.15;;;9.40;99.90;;;;;;5008648;28;20120;-58
2023/04/17 08:10:32;;;;;;;31.13;18.45;;;9.50;99.90;;;;;;5022822;28;20129;-60
2023/04/17 08:12:59;;;;;;;25.67;16.45;;;9.60;99.90;;;;;;5004085;28;20047;-61
2023/04/17 08:15:25;;;;;;;24.00;16.00;;;9.70;99.90;;;;;;5005806;28;20088;-60
2023/04/17 08:17:51;;;;;;;22.67;15.55;;;9.70;99.90;;;;;;5012561;28;20041;-60
2023/04/17 08:20:17;;;;;;;23.35;15.30;;;9.60;99.90;;;;;;5006819;28;20041;-60
2023/04/17 08:22:45;;;;;;;21.30;14.85;;;9.70;99.90;;;;;;5011948;28;20121;-59
2023/04/17 08:25:13;;;;;;;21.30;14.77;;;9.80;99.90;;;;;;5000227;28;20056;-60
2023/04/17 08:27:40;;;;;;;22.30;15.85;;;9.90;99.90;;;;;;4986210;28;20041;-63
2023/04/17 08:30:08;;;;;;;21.08;14.07;;;9.90;99.90;;;;;;4999143;28;20086;-61
2023/04/17 08:32:42;;;;;;;22.27;14.57;;;9.90;99.90;;;;;;5007951;28;20045;-61
2023/04/17 08:35:10;;;;;;;19.48;13.20;;;10.00;99.90;;;;;;5002948;28;20064;-60
2023/04/17 08:37:36;;;;;;;20.30;14.02;;;10.00;99.90;;;;;;5006654;28;20049;-60
2023/04/17 08:40:11;;;;;;;20.60;14.88;;;10.00;99.90;;;;;;5002068;28;20042;-62
2023/04/17 08:42:38;;;;;;;21.50;14.52;;;10.10;99.90;;;;;;5006680;28;20040;-60
2023/04/17 08:45:06;;;;;;;21.30;15.10;;;10.10;99.90;;;;;;5003906;28;20042;-58
2023/04/17 08:47:35;;;;;;;21.92;15.27;;;10.10;99.90;;;;;;5003162;28;20041;-60
2023/04/17 08:50:12;;;;;;;25.88;17.70;;;10.20;99.90;;;;;;5003878;28;20200;-62
2023/04/17 08:52:43;;;;;;;23.73;17.05;;;10.20;99.90;;;;;;4995177;28;20126;-60
2023/04/17 08:55:14;;;;;;;27.52;17.10;;;10.20;99.90;;;;;;5001819;28;20037;-61
2023/04/17 08:57:55;;;;;;;31.85;19.10;;;10.20;99.90;;;;;;5002329;28;20038;-60
2023/04/17 09:00:38;;;;;;;27.67;18.30;;;10.30;99.90;;;;;;5001058;28;20582;-62
2023/04/17 09:03:06;;;;;;;28.67;19.17;;;10.30;99.90;;;;;;5001162;28;20062;-60
2023/04/17 09:05:33;;;;;;;30.20;20.45;;;10.40;99.90;;;;;;5000248;28;20511;-61
2023/04/17 09:08:13;;;;;;;29.50;19.63;;;10.50;99.90;;;;;;4998219;28;20087;-62
2023/04/17 09:10:44;;;;;;;28.02;19.98;;;10.60;99.90;;;;;;5001458;28;20049;-59
2023/04/17 09:13:13;;;;;;;24.45;17.60;;;10.60;99.90;;;;;;4996791;28;20042;-60
2023/04/17 09:15:40;;;;;;;28.25;17.45;;;10.60;99.90;;;;;;5001080;28;20125;-59
2023/04/17 09:18:22;;;;;;;21.38;15.82;;;10.60;99.90;;;;;;4998106;28;20045;-60
2023/04/17 09:20:52;;;;;;;21.52;14.80;;;10.70;99.90;;;;;;5003821;28;20105;-61
2023/04/17 09:23:18;;;;;;;20.40;15.05;;;10.80;99.90;;;;;;4998516;28;20047;-61
2023/04/17 09:25:45;;;;;;;18.75;14.00;;;10.90;99.90;;;;;;5007139;28;20041;-60
2023/04/17 09:28:13;;;;;;;16.70;13.05;;;10.90;99.90;;;;;;5002578;28;20056;-61
2023/04/17 09:30:44;;;;;;;18.92;14.00;;;11.00;99.90;;;;;;5002820;28;20041;-60
2023/04/17 09:33:10;;;;;;;19.27;14.63;;;11.10;99.90;;;;;;5001692;28;20042;-61
2023/04/17 09:35:37;;;;;;;19.15;13.77;;;11.20;99.90;;;;;;5000131;28;20036;-62
2023/04/17 09:38:04;;;;;;;21.33;14.40;;;11.20;99.90;;;;;;4984705;28;20037;-61
2023/04/17 09:40:38;;;;;;;18.40;13.30;;;11.20;99.90;;;;;;4995928;28;20688;-60
2023/04/17 09:43:09;;;;;;;20.52;12.77;;;11.20;99.90;;;;;;5000345;28;20135;-63
2023/04/17 09:45:40;;;;;;;19.85;13.73;;;11.20;99.90;;;;;;4999503;28;20539;-58
2023/04/17 09:48:13;;;;;;;17.45;13.35;;;11.30;99.90;;;;;;4997461;28;20489;-61
2023/04/17 09:50:39;;;;;;;20.83;14.43;;;11.30;99.90;;;;;;4996607;28;20065;-60
2023/04/17 09:53:06;;;;;;;17.95;12.95;;;11.40;99.90;;;;;;4996511;28;20050;-59
2023/04/17 09:55:32;;;;;;;16.58;13.15;;;11.50;99.90;;;;;;5005797;28;20044;-62
2023/04/17 09:58:02;;;;;;;19.52;14.30;;;11.60;99.90;;;;;;5004963;28;20037;-60
2023/04/17 10:00:28;;;;;;;16.83;14.07;;;11.90;99.90;;;;;;5004450;28;20053;-61
2023/04/17 10:02:56;;;;;;;20.30;15.48;;;12.20;99.90;;;;;;5000367;28;20168;-61
2023/04/17 10:05:27;;;;;;;20.77;14.80;;;12.60;99.90;;;;;;5018333;28;20111;-60
2023/04/17 10:07:55;;;;;;;19.25;15.18;;;12.70;99.90;;;;;;5003773;28;20053;-62
2023/04/17 10:10:32;;;;;;;21.10;16.25;;;12.90;99.90;;;;;;5004432;28;20125;-59
2023/04/17 10:13:07;;;;;;;19.00;14.13;;;13.00;99.90;;;;;;5000966;28;20041;-59
2023/04/17 10:15:33;;;;;;;16.58;13.73;;;13.10;99.90;;;;;;5000941;28;20038;-60
2023/04/17 10:18:24;;;;;;;17.77;14.65;;;13.10;99.90;;;;;;5005714;28;20042;-64
2023/04/17 10:20:52;;;;;;;16.83;13.13;;;13.30;99.90;;;;;;5007181;28;20600;-61
2023/04/17 10:23:33;;;;;;;15.60;12.75;;;13.40;99.90;;;;;;5001044;28;20100;-60
2023/04/17 10:26:24;;;;;;;19.40;13.70;;;13.60;99.90;;;;;;5000335;28;20061;-60
2023/04/17 10:28:54;;;;;;;15.05;13.35;;;13.70;99.90;;;;;;5001781;28;20057;-59
2023/04/17 10:31:24;;;;;;;16.10;12.32;;;13.80;99.90;;;;;;5001605;28;20460;-60
2023/04/17 10:33:53;;;;;;;17.70;12.85;;;13.80;99.90;;;;;;5001173;28;20030;-62
2023/04/17 10:36:38;;;;;;;17.17;13.32;;;13.90;99.90;;;;;;5020439;28;20042;-60
2023/04/17 10:39:14;;;;;;;16.38;13.25;;;14.00;99.90;;;;;;5004422;28;20637;-60
2023/04/17 10:42:02;;;;;;;15.88;12.07;;;14.20;99.90;;;;;;5003623;28;20041;-63
2023/04/17 10:44:40;;;;;;;14.50;12.27;;;14.20;99.90;;;;;;5003217;28;20034;-61
2023/04/17 10:47:09;;;;;;;17.55;12.30;;;14.30;99.90;;;;;;4989054;28;20047;-59
2023/04/17 10:49:59;;;;;;;16.92;12.35;;;14.40;99.90;;;;;;5002545;28;20038;-62
2023/04/17 10:52:33;;;;;;;14.65;12.45;;;14.50;99.90;;;;;;5003202;28;20542;-59
2023/04/17 10:55:19;;;;;;;15.50;12.65;;;14.60;99.90;;;;;;5004507;28;20091;-60
2023/04/17 10:58:23;;;;;;;15.07;11.82;;;14.80;99.90;;;;;;5008024;28;20037;-61
2023/04/17 11:00:50;;;;;;;17.13;12.48;;;14.90;99.90;;;;;;4900263;29;20546;-61
2023/04/17 11:03:16;;;;;;;16.05;12.50;;;14.90;99.90;;;;;;4945716;28;20640;-59
2023/04/17 11:05:45;;;;;;;13.95;11.75;;;15.10;99.90;;;;;;4979400;28;20058;-63
2023/04/17 11:08:11;;;;;;;15.73;12.35;;;15.30;99.90;;;;;;5002611;28;20120;-64
2023/04/17 11:10:37;;;;;;;14.82;12.48;;;15.60;99.90;;;;;;5003805;28;20481;-62
2023/04/17 11:13:03;;;;;;;17.27;13.93;;;15.60;99.90;;;;;;5009672;28;20042;-62
2023/04/17 11:15:33;;;;;;;15.30;12.20;;;15.50;99.90;;;;;;5011964;28;20172;-62
2023/04/17 11:18:01;;;;;;;21.23;12.85;;;15.40;99.90;;;;;;5012887;28;20084;-62
2023/04/17 11:20:32;;;;;;;16.55;12.80;;;15.30;99.90;;;;;;5008890;28;20192;-61
2023/04/17 11:23:02;;;;;;;14.93;12.52;;;15.40;99.90;;;;;;5000926;28;20121;-61
2023/04/17 11:25:30;;;;;;;16.02;12.65;;;15.60;99.90;;;;;;5004288;28;20077;-62
2023/04/17 11:27:57;;;;;;;15.20;12.90;;;15.80;99.90;;;;;;4997454;28;20132;-61
2023/04/17 11:30:39;;;;;;;16.58;13.55;;;16.00;99.90;;;;;;5002738;28;20053;-64
2023/04/17 11:33:06;;;;;;;18.23;13.05;;;16.10;99.90;;;;;;5001910;28;20527;-63
2023/04/17 11:35:35;;;;;;;15.32;12.85;;;16.20;99.90;;;;;;5006436;28;20044;-62
2023/04/17 11:38:16;;;;;;;15.88;13.27;;;16.10;99.90;;;;;;5004339;28;20048;-65
2023/04/17 11:40:53;;;;;;;18.65;13.98;;;16.00;99.90;;;;;;5007008;28;20128;-61
2023/04/17 11:43:20;;;;;;;19.13;14.68;;;16.10;99.90;;;;;;5004692;28;20120;-62
2023/04/17 11:45:49;;;;;;;21.60;15.25;;;16.20;99.90;;;;;;5008077;28;20446;-69
2023/04/17 11:48:18;;;;;;;16.30;13.63;;;16.30;99.90;;;;;;5006193;28;20069;-61
2023/04/17 11:50:44;;;;;;;16.48;14.15;;;16.30;99.90;;;;;;5007021;28;20046;-61
2023/04/17 11:53:17;;;;;;;20.15;14.10;;;16.30;99.90;;;;;;5004871;28;20060;-55
2023/04/17 11:55:43;;;;;;;17.38;15.13;;;16.30;99.90;;;;;;5004325;28;20502;-62
2023/04/17 11:58:10;;;;;;;18.70;15.40;;;16.30;99.90;;;;;;4984796;28;20121;-62
2023/04/17 12:00:37;;;;;;;18.80;15.13;;;16.30;99.90;;;;;;5001156;28;20040;-61
2023/04/17 12:03:35;;;;;;;18.65;15.15;;;16.30;99.90;;;;;;5004933;28;20095;-62
2023/04/17 12:06:02;;;;;;;17.38;14.75;;;16.30;99.90;;;;;;5000641;28;20042;-62
2023/04/17 12:08:29;;;;;;;17.60;13.88;;;16.40;99.90;;;;;;4999366;28;20048;-61
2023/04/17 12:10:59;;;;;;;17.70;14.27;;;16.50;99.90;;;;;;4999702;28;20089;-61
2023/04/17 12:13:25;;;;;;;19.65;15.05;;;16.70;99.90;;;;;;5005304;28;20069;-61
2023/04/17 12:15:51;;;;;;;20.25;15.18;;;16.80;99.90;;;;;;5007581;28;20385;-61
2023/04/17 12:18:16;;;;;;;16.15;13.80;;;17.00;99.90;;;;;;5003677;28;20598;-61
2023/04/17 12:20:42;;;;;;;17.88;14.48;;;17.00;99.90;;;;;;5002964;28;20045;-64
2023/04/17 12:23:09;;;;;;;17.45;13.35;;;17.10;99.90;;;;;;5009611;28;20044;-62
2023/04/17 12:25:35;;;;;;;19.35;13.32;;;17.20;99.90;;;;;;5002756;28;20068;-62
2023/04/17 12:28:03;;;;;;;17.98;13.38;;;17.20;99.90;;;;;;5008039;28;20073;-61
2023/04/17 12:30:29;;;;;;;21.00;13.52;;;17.10;99.90;;;;;;5005685;28;20041;-61
2023/04/17 12:32:55;;;;;;;16.70;13.88;;;17.20;99.90;;;;;;4993516;28;20503;-62
2023/04/17 12:35:22;;;;;;;18.13;13.88;;;17.20;99.90;;;;;;5003151;28;20045;-63
2023/04/17 12:37:50;;;;;;;15.52;13.18;;;17.30;99.90;;;;;;5000902;28;20370;-61